Time;durP1;ratioP1;P1;durP2;ratioP2;P2;SDS_P1;SDS_P2;PMS_P1;PMS_P2;Temp;Humidity;BMP_temperature;BMP_pressure;BME280_temperature;BME280_humidity;BME280_pressure;Samples;Min_cycle;Max_cycle;Signal;HPM_P1;HPM_P2
2023/12/08 00:01:11;;;;;;;;;;;-0.80;99.90;;;;;;5083462;28;19980;-69
2023/12/08 00:03:38;;;;;;;;;;;-0.80;99.90;;;;;;5083066;28;19987;-69
2023/12/08 00:06:06;;;;;;;;;;;-0.80;99.90;;;;;;5083072;28;19936;-68
2023/12/08 00:08:33;;;;;;;;;;;-0.80;99.90;;;;;;5082162;28;19936;-68
2023/12/08 00:11:00;;;;;;;;;;;-0.80;99.90;;;;;;5083351;28;19927;-69
2023/12/08 00:13:28;;;;;;;;;;;-0.70;99.90;;;;;;5096857;28;19982;-68
2023/12/08 00:15:54;;;;;;;;;;;-0.70;99.90;;;;;;5094316;28;19927;-69
2023/12/08 00:18:21;;;;;;;;;;;-0.70;99.90;;;;;;5079960;28;19926;-69
2023/12/08 00:20:48;;;;;;;;;;;-0.80;99.90;;;;;;5082869;28;19920;-69
2023/12/08 00:23:15;;;;;;;;;;;-0.80;99.90;;;;;;5087011;28;19959;-68
2023/12/08 00:25:42;;;;;;;;;;;-0.80;99.90;;;;;;5086472;28;19921;-69
2023/12/08 00:28:08;;;;;;;;;;;-0.80;99.90;;;;;;5087141;28;19920;-69
2023/12/08 00:30:36;;;;;;;;;;;-0.80;99.90;;;;;;5087028;28;19922;-69
2023/12/08 00:33:03;;;;;;;;;;;-0.80;99.90;;;;;;5086594;28;20209;-69
2023/12/08 00:35:30;;;;;;;;;;;-0.70;99.90;;;;;;5086324;28;20206;-69
2023/12/08 00:37:57;;;;;;;;;;;-0.70;99.90;;;;;;5087045;28;19962;-69
2023/12/08 00:40:23;;;;;;;;;;;-0.70;99.90;;;;;;5106492;28;19920;-68
2023/12/08 00:42:50;;;;;;;;;;;-0.70;99.90;;;;;;5106579;28;19951;-69
2023/12/08 00:45:17;;;;;;;;;;;-0.70;99.90;;;;;;5106505;28;20252;-68
2023/12/08 00:47:45;;;;;;;;;;;-0.60;99.90;;;;;;5106574;28;19924;-69
2023/12/08 00:50:12;;;;;;;;;;;-0.70;99.90;;;;;;5106196;28;19926;-68
2023/12/08 00:52:38;;;;;;;;;;;-0.70;99.90;;;;;;5090551;28;19954;-68
2023/12/08 00:55:05;;;;;;;;;;;-0.70;99.90;;;;;;5086367;28;19921;-69
2023/12/08 00:57:32;;;;;;;;;;;-0.70;99.90;;;;;;5086353;28;19920;-69
2023/12/08 00:59:58;;;;;;;;;;;-0.70;99.90;;;;;;5086299;28;19920;-68
2023/12/08 01:02:25;;;;;;;;;;;-0.80;99.90;;;;;;5091671;28;19920;-68
2023/12/08 01:04:53;;;;;;;;;;;-0.80;99.90;;;;;;5088553;28;19921;-68
2023/12/08 01:07:20;;;;;;;;;;;-0.80;99.90;;;;;;5086298;28;20095;-68
2023/12/08 01:09:46;;;;;;;;;;;-0.90;99.90;;;;;;5102106;28;19920;-69
2023/12/08 01:12:13;;;;;;;;;;;-0.80;99.90;;;;;;5105744;28;20202;-68
2023/12/08 01:14:40;;;;;;;;;;;-0.80;99.90;;;;;;5105510;28;20006;-69
2023/12/08 01:17:06;;;;;;;;;;;-0.80;99.90;;;;;;5105981;28;19973;-68
2023/12/08 01:19:33;;;;;;;;;;;-0.80;99.90;;;;;;5091140;28;19921;-68
2023/12/08 01:22:01;;;;;;;;;;;-0.90;99.90;;;;;;5085956;28;19983;-69
2023/12/08 01:24:27;;;;;;;;;;;-0.90;99.90;;;;;;5085617;28;19959;-68
2023/12/08 01:26:54;;;;;;;;;;;-0.80;99.90;;;;;;5085719;28;19920;-68
2023/12/08 01:29:21;;;;;;;;;;;-0.80;99.90;;;;;;5085648;28;20211;-69
2023/12/08 01:31:47;;;;;;;;;;;-0.80;99.90;;;;;;5093771;28;19926;-69
2023/12/08 01:34:14;;;;;;;;;;;-0.70;99.90;;;;;;5104661;28;19920;-69
2023/12/08 01:36:40;;;;;;;;;;;-0.70;99.90;;;;;;5105655;28;19920;-69
2023/12/08 01:39:08;;;;;;;;;;;-0.70;99.90;;;;;;5086196;28;20000;-69
2023/12/08 01:41:35;;;;;;;;;;;-0.70;99.90;;;;;;5085794;28;19959;-68
2023/12/08 01:44:02;;;;;;;;;;;-0.70;99.90;;;;;;5085510;28;20359;-69
2023/12/08 01:46:29;;;;;;;;;;;-0.70;99.90;;;;;;5085752;28;19958;-68
2023/12/08 01:48:55;;;;;;;;;;;-0.80;99.90;;;;;;5085885;28;19947;-69
2023/12/08 01:51:22;;;;;;;;;;;-0.70;99.90;;;;;;5085553;28;19950;-68
2023/12/08 01:53:49;;;;;;;;;;;-0.80;99.90;;;;;;5085011;28;19921;-69
2023/12/08 01:56:17;;;;;;;;;;;-0.70;99.90;;;;;;5085189;28;19927;-69
2023/12/08 01:58:44;;;;;;;;;;;-0.80;99.90;;;;;;5085271;28;19920;-68
2023/12/08 02:01:10;;;;;;;;;;;-0.80;99.90;;;;;;5085429;28;19979;-69
2023/12/08 02:03:38;;;;;;;;;;;-0.80;99.90;;;;;;5084991;28;19927;-69
2023/12/08 02:06:05;;;;;;;;;;;-0.80;99.90;;;;;;5085250;28;20004;-68
2023/12/08 02:08:32;;;;;;;;;;;-0.80;99.90;;;;;;5079741;28;20256;-69
2023/12/08 02:10:59;;;;;;;;;;;-0.80;99.90;;;;;;5118858;22;19928;-74
2023/12/08 02:13:27;;;;;;;;;;;-0.70;99.90;;;;;;5084872;28;19921;-72
2023/12/08 02:15:58;;;;;;;;;;;-0.70;99.90;;;;;;5084715;28;20086;-72
2023/12/08 02:18:25;;;;;;;;;;;-0.60;99.90;;;;;;5084586;28;19987;-73
2023/12/08 02:20:52;;;;;;;;;;;-0.60;99.90;;;;;;5080994;28;19979;-72
2023/12/08 02:23:18;;;;;;;;;;;-0.60;99.90;;;;;;5064721;28;19986;-72
2023/12/08 02:25:46;;;;;;;;;;;-0.60;99.90;;;;;;5064540;28;19921;-72
2023/12/08 02:28:13;;;;;;;;;;;-0.50;99.90;;;;;;5056798;28;20157;-72
2023/12/08 02:30:39;;;;;;;;;;;-0.50;99.90;;;;;;5064618;28;19984;-71
2023/12/08 02:33:08;;;;;;;;;;;-0.50;99.90;;;;;;5064262;28;20214;-72
2023/12/08 02:35:38;;;;;;;;;;;-0.40;99.90;;;;;;5064037;28;19927;-72
2023/12/08 02:38:07;;;;;;;;;;;-0.40;99.90;;;;;;5063881;28;20224;-71
2023/12/08 02:40:34;;;;;;;;;;;-0.40;99.90;;;;;;5064500;28;19928;-72
2023/12/08 02:43:02;;;;;;;;;;;-0.30;99.90;;;;;;5064366;28;19924;-71
2023/12/08 02:45:28;;;;;;;;;;;-0.30;99.90;;;;;;5063728;28;19927;-73
2023/12/08 02:47:55;;;;;;;;;;;-0.40;99.90;;;;;;5064232;28;19984;-70
2023/12/08 02:50:22;;;;;;;;;;;-0.30;99.90;;;;;;5064290;28;19992;-71
2023/12/08 02:52:48;;;;;;;;;;;-0.40;99.90;;;;;;5063151;28;19920;-71
2023/12/08 02:55:15;;;;;;;;;;;-0.40;99.90;;;;;;5063841;28;19921;-70
2023/12/08 02:57:41;;;;;;;;;;;-0.40;99.90;;;;;;5069029;28;19984;-70
2023/12/08 03:00:10;;;;;;;;;;;-0.30;99.90;;;;;;5064101;28;19920;-70
2023/12/08 03:02:37;;;;;;;;;;;-0.30;99.90;;;;;;5059344;28;19943;-70
2023/12/08 03:05:04;;;;;;;;;;;-0.30;99.90;;;;;;5063480;28;19920;-70
2023/12/08 03:07:31;;;;;;;;;;;-0.30;99.90;;;;;;5064039;28;19924;-71
2023/12/08 03:09:57;;;;;;;;;;;-0.30;99.90;;;;;;5063409;28;19964;-71
2023/12/08 03:12:24;;;;;;;;;;;-0.30;99.90;;;;;;5063567;28;19921;-70
2023/12/08 03:14:51;;;;;;;;;;;-0.30;99.90;;;;;;5063701;28;19921;-70
2023/12/08 03:17:19;;;;;;;;;;;-0.30;99.90;;;;;;5063860;28;20112;-69
2023/12/08 03:19:45;;;;;;;;;;;-0.20;99.90;;;;;;5063337;28;19966;-70
2023/12/08 03:22:13;;;;;;;;;;;-0.20;99.90;;;;;;5055674;28;19927;-70
2023/12/08 03:24:39;;;;;;;;;;;-0.20;99.90;;;;;;5063229;28;19956;-70
2023/12/08 03:27:06;;;;;;;;;;;-0.20;99.90;;;;;;5063495;28;19932;-70
2023/12/08 03:29:33;;;;;;;;;;;-0.30;99.90;;;;;;5063459;28;19921;-70
2023/12/08 03:31:59;;;;;;;;;;;-0.30;99.90;;;;;;5063286;28;19944;-70
2023/12/08 03:34:27;;;;;;;;;;;-0.30;99.90;;;;;;5062987;28;19921;-70
2023/12/08 03:36:54;;;;;;;;;;;-0.30;99.90;;;;;;5063384;28;19920;-71
2023/12/08 03:39:20;;;;;;;;;;;-0.30;99.90;;;;;;5062859;28;19921;-70
2023/12/08 03:41:47;;;;;;;;;;;-0.30;99.90;;;;;;5063325;28;19999;-70
2023/12/08 03:44:14;;;;;;;;;;;-0.20;99.90;;;;;;5062620;28;19921;-70
2023/12/08 03:46:42;;;;;;;;;;;-0.30;99.90;;;;;;5063066;28;19956;-71
2023/12/08 03:49:09;;;;;;;;;;;-0.20;99.90;;;;;;5063269;28;19984;-70
2023/12/08 03:51:37;;;;;;;;;;;-0.30;99.90;;;;;;5063103;28;19984;-70
2023/12/08 03:54:03;;;;;;;;;;;-0.30;99.90;;;;;;5063160;28;19920;-70
2023/12/08 03:56:30;;;;;;;;;;;-0.30;99.90;;;;;;5065492;28;19963;-71
2023/12/08 03:58:57;;;;;;;;;;;-0.30;99.90;;;;;;5067418;28;19928;-70
2023/12/08 04:01:23;;;;;;;;;;;-0.30;99.90;;;;;;5067400;28;19921;-70
2023/12/08 04:03:50;;;;;;;;;;;-0.30;99.90;;;;;;5067310;28;19928;-70
2023/12/08 04:06:16;;;;;;;;;;;-0.30;99.90;;;;;;5067135;28;19928;-71
2023/12/08 04:08:44;;;;;;;;;;;-0.30;99.90;;;;;;5067165;28;19921;-71
2023/12/08 04:11:11;;;;;;;;;;;-0.30;99.90;;;;;;5066974;28;19920;-70
2023/12/08 04:13:39;;;;;;;;;;;-0.30;99.90;;;;;;5066931;28;19920;-70
2023/12/08 04:16:06;;;;;;;;;;;-0.30;99.90;;;;;;5066940;28;20221;-70
2023/12/08 04:18:33;;;;;;;;;;;-0.30;99.90;;;;;;5066772;28;19992;-70
2023/12/08 04:20:59;;;;;;;;;;;-0.30;99.90;;;;;;5067171;28;19920;-72
2023/12/08 04:23:26;;;;;;;;;;;-0.20;99.90;;;;;;5066991;28;19921;-70
2023/12/08 04:25:54;;;;;;;;;;;-0.20;99.90;;;;;;5066477;28;20395;-70
2023/12/08 04:28:20;;;;;;;;;;;-0.20;99.90;;;;;;5067030;28;19963;-70
2023/12/08 04:30:47;;;;;;;;;;;-0.20;99.90;;;;;;5066790;28;19921;-70
2023/12/08 04:33:13;;;;;;;;;;;-0.20;99.90;;;;;;5066560;28;19972;-70
2023/12/08 04:35:40;;;;;;;;;;;-0.20;99.90;;;;;;5066778;28;19920;-70
2023/12/08 04:38:07;;;;;;;;;;;-0.20;99.90;;;;;;5066787;28;19932;-70
2023/12/08 04:40:33;;;;;;;;;;;-0.20;99.90;;;;;;5066406;28;20091;-70
2023/12/08 04:43:01;;;;;;;;;;;-0.20;99.90;;;;;;5066634;28;19921;-70
2023/12/08 04:45:28;;;;;;;;;;;-0.20;99.90;;;;;;5066497;28;19921;-70
2023/12/08 04:47:54;;;;;;;;;;;-0.10;99.90;;;;;;5066489;28;19920;-71
2023/12/08 04:50:21;;;;;;;;;;;-0.10;99.90;;;;;;5066502;28;20117;-70
2023/12/08 04:52:47;;;;;;;;;;;-0.20;99.90;;;;;;5066418;28;19999;-70
2023/12/08 04:55:14;;;;;;;;;;;-0.20;99.90;;;;;;5066322;28;19980;-70
2023/12/08 04:57:41;;;;;;;;;;;-0.20;99.90;;;;;;5066432;28;19952;-70
2023/12/08 05:00:09;;;;;;;;;;;-0.20;99.90;;;;;;5065799;28;20194;-70
2023/12/08 05:02:36;;;;;;;;;;;-0.20;99.90;;;;;;5065743;28;20157;-71
2023/12/08 05:05:03;;;;;;;;;;;-0.20;99.90;;;;;;5066090;28;19964;-70
2023/12/08 05:07:30;;;;;;;;;;;-0.10;99.90;;;;;;5065896;28;19921;-70
2023/12/08 05:09:56;;;;;;;;;;;-0.20;99.90;;;;;;5065824;28;19984;-70
2023/12/08 05:12:23;;;;;;;;;;;-0.10;99.90;;;;;;5065621;28;19927;-70
2023/12/08 05:14:49;;;;;;;;;;;-0.10;99.90;;;;;;5065461;28;20225;-71
2023/12/08 05:17:17;;;;;;;;;;;-0.10;99.90;;;;;;5065892;28;19921;-70
2023/12/08 05:19:44;;;;;;;;;;;-0.10;99.90;;;;;;5065849;28;19988;-70
2023/12/08 05:22:11;;;;;;;;;;;-0.10;99.90;;;;;;5065831;28;19980;-70
2023/12/08 05:24:38;;;;;;;;;;;-0.20;99.90;;;;;;5065712;28;20113;-71
2023/12/08 05:27:05;;;;;;;;;;;-0.20;99.90;;;;;;5065553;28;19980;-70
2023/12/08 05:29:32;;;;;;;;;;;-0.10;99.90;;;;;;5065782;28;19920;-70
2023/12/08 05:31:59;;;;;;;;;;;-0.10;99.90;;;;;;5065444;28;19927;-72
2023/12/08 05:34:27;;;;;;;;;;;-0.10;99.90;;;;;;5065722;28;19921;-70
2023/12/08 05:36:53;;;;;;;;;;;-0.10;99.90;;;;;;5065328;28;19991;-70
2023/12/08 05:39:20;;;;;;;;;;;-0.10;99.90;;;;;;5065445;28;19927;-70
2023/12/08 05:41:47;;;;;;;;;;;-0.10;99.90;;;;;;5065225;28;19931;-69
2023/12/08 05:44:14;;;;;;;;;;;-0.10;99.90;;;;;;5065290;28;19924;-71
2023/12/08 05:46:41;;;;;;;;;;;-0.10;99.90;;;;;;5065039;28;19956;-70
2023/12/08 05:49:08;;;;;;;;;;;0.00;99.90;;;;;;5065203;28;20158;-70
2023/12/08 05:51:35;;;;;;;;;;;-0.10;99.90;;;;;;5065310;28;19921;-70
2023/12/08 05:54:02;;;;;;;;;;;-0.10;99.90;;;;;;5065147;28;19927;-71
2023/12/08 05:56:29;;;;;;;;;;;0.00;99.90;;;;;;5065138;28;20090;-70
2023/12/08 05:58:56;;;;;;;;;;;0.00;99.90;;;;;;5064969;28;19928;-70
2023/12/08 06:01:22;;;;;;;;;;;0.00;99.90;;;;;;5064984;28;20252;-71
2023/12/08 06:03:49;;;;;;;;;;;0.00;99.90;;;;;;5065224;28;19984;-71
2023/12/08 06:06:16;;;;;;;;;;;0.00;99.90;;;;;;5064881;28;19980;-72
2023/12/08 06:08:44;;;;;;;;;;;0.00;99.90;;;;;;5064741;28;20231;-71
2023/12/08 06:11:10;;;;;;;;;;;0.00;99.90;;;;;;5064732;28;19921;-71
2023/12/08 06:13:37;;;;;;;;;;;0.00;99.90;;;;;;5064799;28;19987;-70
2023/12/08 06:16:04;;;;;;;;;;;0.00;99.90;;;;;;5064811;28;19920;-71
2023/12/08 06:18:31;;;;;;;;;;;0.00;99.90;;;;;;5064374;28;19924;-70
2023/12/08 06:20:58;;;;;;;;;;;0.00;99.90;;;;;;5064742;28;20015;-71
2023/12/08 06:23:23;;;;;;;;;;;0.00;99.90;;;;;;5064934;28;19952;-77
2023/12/08 06:25:51;;;;;;;;;;;0.00;99.90;;;;;;5064357;28;19923;-76
2023/12/08 06:28:18;;;;;;;;;;;-0.10;99.90;;;;;;5064558;28;20256;-74
2023/12/08 06:30:44;;;;;;;;;;;0.00;99.90;;;;;;5065019;28;19921;-73
2023/12/08 06:33:11;;;;;;;;;;;0.00;99.90;;;;;;5067033;28;19989;-73
2023/12/08 06:35:38;;;;;;;;;;;0.00;99.90;;;;;;5066833;28;19963;-73
2023/12/08 06:38:05;;;;;;;;;;;0.00;99.90;;;;;;5065102;28;20213;-73
2023/12/08 06:40:31;;;;;;;;;;;0.00;99.90;;;;;;5064338;28;19921;-70
2023/12/08 06:42:58;;;;;;;;;;;0.10;99.90;;;;;;5064605;28;19921;-70
2023/12/08 06:45:25;;;;;;;;;;;0.00;99.90;;;;;;5064603;28;19924;-71
2023/12/08 06:47:52;;;;;;;;;;;0.00;99.90;;;;;;5064459;28;19928;-70
2023/12/08 06:50:18;;;;;;;;;;;0.10;99.90;;;;;;5064118;28;19921;-70
2023/12/08 06:52:46;;;;;;;;;;;0.00;99.90;;;;;;5064303;28;19980;-70
2023/12/08 06:55:13;;;;;;;;;;;0.00;99.90;;;;;;5063752;28;19921;-72
2023/12/08 06:57:40;;;;;;;;;;;0.00;99.90;;;;;;5064052;28;20249;-70
2023/12/08 07:00:10;;;;;;;;;;;0.00;99.90;;;;;;5064043;28;19939;-70
2023/12/08 07:02:36;;;;;;;;;;;0.00;99.90;;;;;;5063808;28;20237;-70
2023/12/08 07:05:03;;;;;;;;;;;0.00;99.90;;;;;;5063246;28;19927;-71
2023/12/08 07:07:30;;;;;;;;;;;0.10;99.90;;;;;;5063924;28;20158;-72
2023/12/08 07:09:56;;;;;;;;;;;0.10;99.90;;;;;;5063455;28;19952;-70
2023/12/08 07:12:23;;;;;;;;;;;0.10;99.90;;;;;;5063470;28;19920;-71
2023/12/08 07:14:50;;;;;;;;;;;0.00;99.90;;;;;;5063401;28;20002;-71
2023/12/08 07:17:18;;;;;;;;;;;0.00;99.90;;;;;;5063738;28;19955;-71
2023/12/08 07:19:45;;;;;;;;;;;0.00;99.90;;;;;;5063387;28;20344;-70
2023/12/08 07:22:11;;;;;;;;;;;0.10;99.90;;;;;;5063784;28;19979;-71
2023/12/08 07:24:38;;;;;;;;;;;0.10;99.90;;;;;;5063272;28;19921;-70
2023/12/08 07:27:05;;;;;;;;;;;0.10;99.90;;;;;;5063685;28;19958;-71
2023/12/08 07:29:31;;;;;;;;;;;0.10;99.90;;;;;;5063512;28;19980;-70
2023/12/08 07:31:58;;;;;;;;;;;0.10;99.90;;;;;;5062958;28;19920;-71
2023/12/08 07:34:26;;;;;;;;;;;0.10;99.90;;;;;;5063367;28;19921;-71
2023/12/08 07:36:53;;;;;;;;;;;0.10;99.90;;;;;;5063517;28;20113;-70
2023/12/08 07:39:19;;;;;;;;;;;0.10;99.90;;;;;;5063345;28;19979;-71
2023/12/08 07:41:46;;;;;;;;;;;0.20;99.90;;;;;;5063417;28;19921;-70
2023/12/08 07:44:13;;;;;;;;;;;0.20;99.90;;;;;;5063282;28;19992;-71
2023/12/08 07:46:40;;;;;;;;;;;0.30;99.90;;;;;;5063377;28;19928;-70
2023/12/08 07:49:06;;;;;;;;;;;0.30;99.90;;;;;;5059530;28;20185;-71
2023/12/08 07:51:34;;;;;;;;;;;0.20;99.90;;;;;;5062837;28;19921;-70
2023/12/08 07:54:03;;;;;;;;;;;0.20;99.90;;;;;;5061328;28;20173;-70
2023/12/08 07:56:29;;;;;;;;;;;0.30;99.90;;;;;;5054367;28;20244;-71
2023/12/08 07:58:56;;;;;;;;;;;0.20;99.90;;;;;;5060679;28;20233;-70
2023/12/08 08:01:23;;;;;;;;;;;0.20;99.90;;;;;;5063055;28;19928;-70
2023/12/08 08:03:49;;;;;;;;;;;0.20;99.90;;;;;;5062869;28;20159;-71
2023/12/08 08:06:16;;;;;;;;;;;0.20;99.90;;;;;;5062887;28;19984;-71
2023/12/08 08:08:44;;;;;;;;;;;0.30;99.90;;;;;;5063236;28;19921;-70
2023/12/08 08:11:10;;;;;;;;;;;0.20;99.90;;;;;;5062410;28;20259;-71
2023/12/08 08:13:37;;;;;;;;;;;0.20;99.90;;;;;;5062906;28;19984;-69
2023/12/08 08:16:04;;;;;;;;;;;0.20;99.90;;;;;;5063220;28;20257;-72
2023/12/08 08:18:30;;;;;;;;;;;0.20;99.90;;;;;;5063128;28;19935;-70
2023/12/08 08:20:57;;;;;;;;;;;0.20;99.90;;;;;;5062952;28;19920;-70
2023/12/08 08:23:24;;;;;;;;;;;0.20;99.90;;;;;;5062636;28;19951;-70
2023/12/08 08:25:52;;;;;;;;;;;0.20;99.90;;;;;;5062698;28;19983;-71
2023/12/08 08:28:18;;;;;;;;;;;0.20;99.90;;;;;;5062593;28;19921;-71
2023/12/08 08:30:45;;;;;;;;;;;0.30;99.90;;;;;;5062435;28;19924;-70
2023/12/08 08:33:12;;;;;;;;;;;0.30;99.90;;;;;;5062370;28;19927;-70
2023/12/08 08:35:38;;;;;;;;;;;0.30;99.90;;;;;;5062625;28;19984;-70
2023/12/08 08:38:05;;;;;;;;;;;0.30;99.90;;;;;;5062663;28;19960;-70
2023/12/08 08:40:32;;;;;;;;;;;0.40;99.90;;;;;;5062499;28;19920;-71
2023/12/08 08:43:00;;;;;;;;;;;0.40;99.90;;;;;;5065397;28;19928;-71
2023/12/08 08:45:26;;;;;;;;;;;0.40;99.90;;;;;;5066181;28;20189;-70
2023/12/08 08:47:53;;;;;;;;;;;0.40;99.90;;;;;;5066274;28;19921;-70
2023/12/08 08:50:21;;;;;;;;;;;0.40;99.90;;;;;;5066374;28;19921;-70
2023/12/08 08:52:47;;;;;;;;;;;0.50;99.90;;;;;;5065933;28;20166;-71
2023/12/08 08:55:14;;;;;;;;;;;0.50;99.90;;;;;;5066028;28;19921;-71
2023/12/08 08:57:40;;;;;;;;;;;0.50;99.90;;;;;;5066174;28;19921;-71
2023/12/08 09:00:12;;;;;;;;;;;0.50;99.90;;;;;;5065760;28;19936;-71
2023/12/08 09:02:38;;;;;;;;;;;0.50;99.90;;;;;;5066126;28;19929;-71
2023/12/08 09:05:06;;;;;;;;;;;0.50;99.90;;;;;;5065678;28;19921;-71
2023/12/08 09:07:32;;;;;;;;;;;0.50;99.90;;;;;;5065733;28;19920;-71
2023/12/08 09:09:59;;;;;;;;;;;0.50;99.90;;;;;;5065706;28;19920;-70
2023/12/08 09:12:26;;;;;;;;;;;0.50;99.90;;;;;;5065749;28;20193;-70
2023/12/08 09:14:52;;;;;;;;;;;0.50;99.90;;;;;;5065326;28;19985;-71
2023/12/08 09:17:20;;;;;;;;;;;0.50;99.90;;;;;;5065899;28;20092;-71
2023/12/08 09:19:47;;;;;;;;;;;0.50;99.90;;;;;;5065669;28;19921;-71
2023/12/08 09:22:14;;;;;;;;;;;0.50;99.90;;;;;;5065695;28;19921;-70
2023/12/08 09:24:41;;;;;;;;;;;0.50;99.90;;;;;;5065484;28;19984;-70
2023/12/08 09:27:07;;;;;;;;;;;0.60;99.90;;;;;;5065807;28;20162;-70
2023/12/08 09:29:34;;;;;;;;;;;0.60;99.90;;;;;;5065763;28;19921;-70
2023/12/08 09:32:01;;;;;;;;;;;0.60;99.90;;;;;;5065642;28;19991;-71
2023/12/08 09:34:29;;;;;;;;;;;0.60;99.90;;;;;;5065537;28;20182;-71
2023/12/08 09:36:56;;;;;;;;;;;0.70;99.90;;;;;;5065582;28;19921;-70
2023/12/08 09:39:23;;;;;;;;;;;0.70;99.90;;;;;;5065143;28;19927;-71
2023/12/08 09:41:50;;;;;;;;;;;0.70;99.90;;;;;;5065070;28;19927;-71
2023/12/08 09:44:18;;;;;;;;;;;0.70;99.90;;;;;;5065305;28;19928;-71
2023/12/08 09:46:45;;;;;;;;;;;0.80;99.90;;;;;;5065573;28;19924;-71
2023/12/08 09:49:13;;;;;;;;;;;0.80;99.90;;;;;;5065263;28;19984;-70
2023/12/08 09:51:41;;;;;;;;;;;0.90;99.90;;;;;;5065311;28;20154;-70
2023/12/08 09:54:08;;;;;;;;;;;0.90;99.90;;;;;;5063848;28;19956;-71
2023/12/08 09:56:35;;;;;;;;;;;0.90;99.90;;;;;;5065196;28;19960;-70
2023/12/08 09:59:02;;;;;;;;;;;0.90;99.90;;;;;;5064828;28;19920;-71
2023/12/08 10:01:29;;;;;;;;;;;1.00;99.90;;;;;;5065102;28;19921;-71
2023/12/08 10:03:55;;;;;;;;;;;1.00;99.90;;;;;;5064824;28;19927;-71
2023/12/08 10:06:23;;;;;;;;;;;1.00;99.90;;;;;;5065048;28;20214;-71
2023/12/08 10:08:51;;;;;;;;;;;1.10;99.90;;;;;;5064507;28;19921;-71
2023/12/08 10:11:18;;;;;;;;;;;1.10;99.90;;;;;;5064274;28;19927;-71
2023/12/08 10:13:44;;;;;;;;;;;1.20;99.90;;;;;;5064781;28;19921;-70
2023/12/08 10:16:11;;;;;;;;;;;1.20;99.90;;;;;;5064654;28;19920;-71
2023/12/08 10:18:38;;;;;;;;;;;1.20;99.90;;;;;;5064568;28;19927;-70
2023/12/08 10:21:13;;;;;;;;;;;1.10;99.90;;;;;;5064645;28;19921;-71
2023/12/08 10:23:39;;;;;;;;;;;1.20;99.90;;;;;;5059879;28;19989;-70
2023/12/08 10:26:09;;;;;;;;;;;1.20;99.90;;;;;;5064631;28;19921;-71
2023/12/08 10:28:35;;;;;;;;;;;1.20;99.90;;;;;;5064551;28;19928;-70
2023/12/08 10:31:02;;;;;;;;;;;1.20;99.90;;;;;;5064527;28;19921;-70
2023/12/08 10:33:29;;;;;;;;;;;1.20;99.90;;;;;;5064551;28;19991;-71
2023/12/08 10:35:56;;;;;;;;;;;1.20;99.90;;;;;;5064015;28;19935;-70
2023/12/08 10:38:23;;;;;;;;;;;1.20;99.90;;;;;;5064423;28;19988;-71
2023/12/08 10:40:52;;;;;;;;;;;1.20;99.90;;;;;;5064131;28;19983;-72
2023/12/08 10:43:22;;;;;;;;;;;1.20;99.90;;;;;;5063970;28;20260;-71
2023/12/08 10:45:50;;;;;;;;;;;1.20;99.90;;;;;;5064206;28;19953;-71
2023/12/08 10:48:19;;;;;;;;;;;1.30;99.90;;;;;;5063943;28;19989;-71
2023/12/08 10:50:47;;;;;;;;;;;1.30;99.90;;;;;;5064073;28;19921;-70
2023/12/08 10:53:15;;;;;;;;;;;1.30;99.90;;;;;;5061544;28;20000;-71
2023/12/08 10:55:41;;;;;;;;;;;1.40;99.90;;;;;;5063962;28;19979;-71
2023/12/08 10:58:10;;;;;;;;;;;1.40;99.90;;;;;;5063836;28;19928;-71
2023/12/08 11:00:38;;;;;;;;;;;1.40;99.90;;;;;;5064056;28;20186;-71
2023/12/08 11:03:09;;;;;;;;;;;1.40;99.90;;;;;;5063731;28;19920;-71
2023/12/08 11:05:38;;;;;;;;;;;1.40;99.90;;;;;;5058529;28;19921;-71
2023/12/08 11:08:06;;;;;;;;;;;1.40;99.90;;;;;;5063834;28;19921;-71
2023/12/08 11:10:37;;;;;;;;;;;1.40;99.90;;;;;;5063520;28;19979;-70
2023/12/08 11:13:07;;;;;;;;;;;1.40;99.90;;;;;;5063774;28;19980;-71
2023/12/08 11:15:34;;;;;;;;;;;1.40;99.90;;;;;;5058403;28;20047;-71
2023/12/08 11:18:09;;;;;;;;;;;1.40;99.90;;;;;;5063457;28;19921;-70
2023/12/08 11:20:36;;;;;;;;;;;1.50;99.90;;;;;;5058266;28;19983;-70
2023/12/08 11:23:03;;;;;;;;;;;1.50;99.90;;;;;;5063452;28;19920;-70
2023/12/08 11:25:31;;;;;;;;;;;1.50;99.90;;;;;;5063361;28;19956;-71
2023/12/08 11:28:01;;;;;;;;;;;1.50;99.90;;;;;;5063463;28;19952;-70
2023/12/08 11:30:30;;;;;;;;;;;1.50;99.90;;;;;;5063533;28;19983;-71
2023/12/08 11:33:02;;;;;;;;;;;1.50;99.90;;;;;;5063680;28;19984;-70
2023/12/08 11:35:30;;;;;;;;;;;1.50;99.90;;;;;;5063341;28;19921;-71
2023/12/08 11:37:57;;;;;;;;;;;1.60;99.90;;;;;;5063316;28;19956;-72
2023/12/08 11:40:24;;;;;;;;;;;1.60;99.90;;;;;;5063212;28;19956;-71
2023/12/08 11:42:53;;;;;;;;;;;1.60;99.90;;;;;;5063226;28;19920;-70
2023/12/08 11:45:20;;;;;;;;;;;1.60;99.90;;;;;;5063116;28;19920;-71
2023/12/08 11:47:46;;;;;;;;;;;1.60;99.90;;;;;;5063308;28;19963;-70
2023/12/08 11:50:13;;;;;;;;;;;1.60;99.90;;;;;;5060105;28;20276;-71
2023/12/08 11:52:42;;;;;;;;;;;1.60;99.90;;;;;;5063044;28;19960;-70
2023/12/08 11:55:12;;;;;;;;;;;1.70;99.90;;;;;;5062901;28;19921;-72
2023/12/08 11:57:42;;;;;;;;;;;1.70;99.90;;;;;;5062863;28;19927;-70
2023/12/08 12:00:10;;;;;;;;;;;1.70;99.90;;;;;;5062847;28;19921;-70
2023/12/08 12:02:38;;;;;;;;;;;1.70;99.90;;;;;;5062598;28;19928;-71
2023/12/08 12:05:05;;;;;;;;;;;1.70;99.90;;;;;;5062758;28;19975;-70
2023/12/08 12:07:32;;;;;;;;;;;1.80;99.90;;;;;;5063022;28;19992;-70
2023/12/08 12:10:00;;;;;;;;;;;1.80;99.90;;;;;;5062769;28;19920;-72
2023/12/08 12:12:29;;;;;;;;;;;1.80;99.90;;;;;;5062601;28;19927;-70
2023/12/08 12:14:56;;;;;;;;;;;1.80;99.90;;;;;;5062732;28;19921;-71
2023/12/08 12:17:23;;;;;;;;;;;1.80;99.90;;;;;;5064992;28;19979;-71
2023/12/08 12:19:51;;;;;;;;;;;1.90;99.90;;;;;;5066764;28;20182;-71
2023/12/08 12:22:17;;;;;;;;;;;1.90;99.90;;;;;;5066904;28;19952;-70
2023/12/08 12:24:44;;;;;;;;;;;1.90;99.90;;;;;;5066325;28;19921;-71
2023/12/08 12:27:12;;;;;;;;;;;1.90;99.90;;;;;;5066713;28;19960;-71
2023/12/08 12:29:38;;;;;;;;;;;1.90;99.90;;;;;;5066898;28;19956;-72
2023/12/08 12:32:07;;;;;;;;;;;1.90;99.90;;;;;;5066657;28;19927;-71
2023/12/08 12:34:34;;;;;;;;;;;1.90;99.90;;;;;;5061077;28;19927;-72
2023/12/08 12:37:01;;;;;;;;;;;2.00;99.90;;;;;;5065779;28;19928;-72
2023/12/08 12:39:27;;;;;;;;;;;2.10;99.90;;;;;;5066586;28;19984;-71
2023/12/08 12:41:58;;;;;;;;;;;2.10;99.90;;;;;;5066444;28;20150;-72
2023/12/08 12:44:37;;;;;;;;;;;2.10;99.90;;;;;;5066352;28;20227;-72
2023/12/08 12:47:04;;;;;;;;;;;2.10;99.90;;;;;;5066622;28;19927;-72
2023/12/08 12:49:31;;;;;;;;;;;2.10;99.90;;;;;;5066498;28;19991;-71
2023/12/08 12:51:57;;;;;;;;;;;2.10;99.90;;;;;;5066260;28;19984;-74
2023/12/08 12:54:31;;;;;;;;;;;2.20;99.90;;;;;;5065661;28;19927;-71
2023/12/08 12:56:58;;;;;;;;;;;2.20;99.90;;;;;;5066124;28;19925;-71
2023/12/08 12:59:26;;;;;;;;;;;2.20;99.90;;;;;;5066209;28;20114;-71
2023/12/08 13:01:52;;;;;;;;;;;2.20;99.90;;;;;;5065929;28;19984;-71
2023/12/08 13:04:27;;;;;;;;;;;2.20;99.90;;;;;;5065912;28;19959;-71
2023/12/08 13:06:53;;;;;;;;;;;2.20;99.90;;;;;;5065888;28;19984;-71
2023/12/08 13:09:26;;;;;;;;;;;2.20;99.90;;;;;;5066127;28;19921;-71
2023/12/08 13:11:53;;;;;;;;;;;2.20;99.90;;;;;;5065759;28;19943;-71
2023/12/08 13:14:20;;;;;;;;;;;2.10;99.90;;;;;;5065711;28;19921;-74
2023/12/08 13:16:48;;;;;;;;;;;2.10;99.90;;;;;;5065667;28;19921;-71
2023/12/08 13:19:14;;;;;;;;;;;2.10;99.90;;;;;;5065785;28;19983;-71
2023/12/08 13:21:41;;;;;;;;;;;2.10;99.90;;;;;;5065782;28;19968;-71
2023/12/08 13:24:08;;;;;;;;;;;2.10;99.90;;;;;;5065358;28;19935;-71
2023/12/08 13:26:34;;;;;;;;;;;2.10;99.90;;;;;;5060575;28;19984;-71
2023/12/08 13:29:01;;;;;;;;;;;2.20;99.90;;;;;;5064372;28;19979;-71
2023/12/08 13:31:27;;;;;;;;;;;2.20;99.90;;;;;;5065306;28;19956;-71
2023/12/08 13:33:55;;;;;;;;;;;2.20;99.90;;;;;;5065392;28;19920;-72
2023/12/08 13:36:22;;;;;;;;;;;2.20;99.90;;;;;;5065604;28;20182;-71
2023/12/08 13:38:49;;;;;;;;;;;2.20;99.90;;;;;;5065637;28;19921;-72
2023/12/08 13:41:15;;;;;;;;;;;2.30;99.90;;;;;;5064969;28;19927;-74
2023/12/08 13:43:42;;;;;;;;;;;2.30;99.90;;;;;;5065060;28;19929;-75
2023/12/08 13:46:08;;;;;;;;;;;2.30;99.90;;;;;;5065506;28;19921;-76
2023/12/08 13:48:35;;;;;;;;;;;2.30;99.90;;;;;;5065304;28;20012;-73
2023/12/08 13:51:03;;;;;;;;;;;2.30;99.90;;;;;;5065130;28;19991;-74
2023/12/08 13:53:30;;;;;;;;;;;2.40;99.90;;;;;;5065548;28;19929;-73
2023/12/08 13:55:57;;;;;;;;;;;2.40;99.90;;;;;;5065005;28;19921;-75
2023/12/08 13:58:24;;;;;;;;;;;2.40;99.90;;;;;;5065081;28;20168;-72
2023/12/08 14:00:50;;;;;;;;;;;2.40;99.90;;;;;;5065063;28;19927;-73
2023/12/08 14:03:17;;;;;;;;;;;2.40;99.90;;;;;;5065146;28;19979;-72
2023/12/08 14:05:44;;;;;;;;;;;2.40;99.90;;;;;;5064502;28;19999;-72
2023/12/08 14:08:12;;;;;;;;;;;2.30;99.90;;;;;;5064370;28;19920;-73
2023/12/08 14:10:38;;;;;;;;;;;2.40;99.90;;;;;;5064972;28;19984;-72
2023/12/08 14:13:05;;;;;;;;;;;2.30;99.90;;;;;;5061699;28;20396;-72
2023/12/08 14:15:32;;;;;;;;;;;2.30;99.90;;;;;;5064689;28;19967;-72
2023/12/08 14:17:59;;;;;;;;;;;2.30;99.90;;;;;;5064911;28;19995;-72
2023/12/08 14:20:25;;;;;;;;;;;2.30;99.90;;;;;;5064710;28;19983;-72
2023/12/08 14:22:52;;;;;;;;;;;2.30;99.90;;;;;;5064812;28;19993;-72